sensor_id;sensor_type;location;lat;lon;timestamp;pressure;altitude;pressure_sealevel;temperature;humidity
86120;BME280;76781;52.434;13.488;2024-02-28T08:18:15;101793.84;;;21.40;33.50
86120;BME280;76781;52.434;13.488;2024-02-28T08:20:40;101797.31;;;21.32;33.97
86120;BME280;76781;52.434;13.488;2024-02-28T08:23:06;101794.06;;;21.27;33.85
86120;BME280;76781;52.434;13.488;2024-02-28T08:28:21;101796.38;;;21.22;34.45
86120;BME280;76781;52.434;13.488;2024-02-28T08:30:56;101799.88;;;21.24;34.62
86120;BME280;76781;52.434;13.488;2024-02-28T08:33:25;101801.63;;;21.25;34.44
86120;BME280;76781;52.434;13.488;2024-02-28T08:35:51;101815.59;;;21.23;34.45
86120;BME280;76781;52.434;13.488;2024-02-28T08:38:17;101814.56;;;21.24;34.73
86120;BME280;76781;52.434;13.488;2024-02-28T08:40:45;101815.59;;;21.23;34.52
86120;BME280;76781;52.434;13.488;2024-02-28T08:43:13;101820.25;;;21.23;34.80
86120;BME280;76781;52.434;13.488;2024-02-28T08:45:38;101819.38;;;21.22;35.03
86120;BME280;76781;52.434;13.488;2024-02-28T08:48:07;101825.94;;;21.21;34.97
86120;BME280;76781;52.434;13.488;2024-02-28T08:50:32;101820.25;;;21.23;34.67
86120;BME280;76781;52.434;13.488;2024-02-28T08:53:07;101824.59;;;21.25;34.65
86120;BME280;76781;52.434;13.488;2024-02-28T08:55:39;101823.72;;;21.25;34.76
86120;BME280;76781;52.434;13.488;2024-02-28T08:58:04;101824.59;;;21.25;34.74
86120;BME280;76781;52.434;13.488;2024-02-28T09:00:30;101819.38;;;21.22;34.89
86120;BME280;76781;52.434;13.488;2024-02-28T09:02:55;101821.72;;;21.27;34.98
86120;BME280;76781;52.434;13.488;2024-02-28T09:05:21;101827.84;;;21.31;34.87
86120;BME280;76781;52.434;13.488;2024-02-28T09:07:47;101826.72;;;21.33;34.89
86120;BME280;76781;52.434;13.488;2024-02-28T09:10:19;101823.78;;;21.35;34.94
86120;BME280;76781;52.434;13.488;2024-02-28T09:12:49;101816.25;;;21.37;35.00
86120;BME280;76781;52.434;13.488;2024-02-28T09:15:23;101810.56;;;21.38;35.12
86120;BME280;76781;52.434;13.488;2024-02-28T09:17:50;101814.06;;;21.40;35.00
86120;BME280;76781;52.434;13.488;2024-02-28T09:20:15;101814.66;;;21.44;35.29
86120;BME280;76781;52.434;13.488;2024-02-28T09:25:19;101818.72;;;21.40;35.09
86120;BME280;76781;52.434;13.488;2024-02-28T09:27:49;101818.00;;;21.47;34.97
86120;BME280;76781;52.434;13.488;2024-02-28T09:30:27;101811.59;;;21.47;34.87
86120;BME280;76781;52.434;13.488;2024-02-28T09:33:01;101820.63;;;21.49;34.94
86120;BME280;76781;52.434;13.488;2024-02-28T09:35:26;101822.09;;;21.53;34.81
86120;BME280;76781;52.434;13.488;2024-02-28T09:37:51;101816.09;;;21.48;35.08
86120;BME280;76781;52.434;13.488;2024-02-28T09:40:17;101810.44;;;21.49;34.75
86120;BME280;76781;52.434;13.488;2024-02-28T09:42:51;101825.88;;;21.52;34.44
86120;BME280;76781;52.434;13.488;2024-02-28T09:45:20;101824.41;;;21.48;34.52
86120;BME280;76781;52.434;13.488;2024-02-28T09:47:59;101830.84;;;21.48;34.84
86120;BME280;76781;52.434;13.488;2024-02-28T09:50:29;101831.41;;;21.52;34.77
86120;BME280;76781;52.434;13.488;2024-02-28T09:52:55;101832.25;;;21.52;34.48
86120;BME280;76781;52.434;13.488;2024-02-28T09:55:49;101841.75;;;21.50;34.47
86120;BME280;76781;52.434;13.488;2024-02-28T09:58:15;101842.63;;;21.50;34.64
86120;BME280;76781;52.434;13.488;2024-02-28T10:00:43;101844.66;;;21.48;34.71
86120;BME280;76781;52.434;13.488;2024-02-28T10:03:18;101857.31;;;21.51;34.99
86120;BME280;76781;52.434;13.488;2024-02-28T10:05:53;101861.81;;;21.52;34.96
86120;BME280;76781;52.434;13.488;2024-02-28T10:08:28;101857.16;;;21.52;35.02
86120;BME280;76781;52.434;13.488;2024-02-28T10:10:54;101853.53;;;21.52;34.67
86120;BME280;76781;52.434;13.488;2024-02-28T10:13:21;101857.03;;;21.54;34.51
86120;BME280;76781;52.434;13.488;2024-02-28T10:15:50;101854.41;;;21.52;34.83
86120;BME280;76781;52.434;13.488;2024-02-28T10:18:16;101854.28;;;21.54;34.98
86120;BME280;76781;52.434;13.488;2024-02-28T10:21:24;101860.69;;;21.55;34.82
86120;BME280;76781;52.434;13.488;2024-02-28T10:24:06;101865.34;;;21.54;34.56
86120;BME280;76781;52.434;13.488;2024-02-28T10:26:31;101860.53;;;21.56;34.43
86120;BME280;76781;52.434;13.488;2024-02-28T10:29:03;101861.56;;;21.55;34.23
86120;BME280;76781;52.434;13.488;2024-02-28T10:31:28;101870.56;;;21.57;34.20
86120;BME280;76781;52.434;13.488;2024-02-28T10:33:57;101875.97;;;21.59;34.55
86120;BME280;76781;52.434;13.488;2024-02-28T10:36:25;101871.31;;;21.59;34.81
86120;BME280;76781;52.434;13.488;2024-02-28T10:38:53;101876.84;;;21.59;34.32
86120;BME280;76781;52.434;13.488;2024-02-28T10:41:38;101879.47;;;21.61;34.65
86120;BME280;76781;52.434;13.488;2024-02-28T10:44:03;101879.47;;;21.61;34.51
86120;BME280;76781;52.434;13.488;2024-02-28T10:49:21;101886.75;;;21.62;34.73
86120;BME280;76781;52.434;13.488;2024-02-28T10:54:54;101885.59;;;21.64;34.77
86120;BME280;76781;52.434;13.488;2024-02-28T10:57:22;101887.22;;;21.67;34.58
86120;BME280;76781;52.434;13.488;2024-02-28T10:59:59;101889.09;;;21.66;34.52
86120;BME280;76781;52.434;13.488;2024-02-28T11:02:31;101891.84;;;21.66;34.70
86120;BME280;76781;52.434;13.488;2024-02-28T11:05:00;101889.09;;;21.66;34.54
86120;BME280;76781;52.434;13.488;2024-02-28T11:07:56;101893.63;;;21.67;34.83
86120;BME280;76781;52.434;13.488;2024-02-28T11:10:23;101898.41;;;21.65;34.82
86120;BME280;76781;52.434;13.488;2024-02-28T11:12:54;101892.59;;;21.68;34.67
86120;BME280;76781;52.434;13.488;2024-02-28T11:15:19;101888.81;;;21.69;34.56
86120;BME280;76781;52.434;13.488;2024-02-28T11:17:51;101891.41;;;21.71;34.74
86120;BME280;76781;52.434;13.488;2024-02-28T11:20:19;101882.25;;;21.70;34.85
86120;BME280;76781;52.434;13.488;2024-02-28T11:22:57;101890.28;;;21.73;34.42
86120;BME280;76781;52.434;13.488;2024-02-28T11:25:23;101885.59;;;21.74;34.72
86120;BME280;76781;52.434;13.488;2024-02-28T11:27:48;101892.00;;;21.74;34.41
86120;BME280;76781;52.434;13.488;2024-02-28T11:30:14;101891.75;;;21.77;34.43
86120;BME280;76781;52.434;13.488;2024-02-28T11:50:00;101893.53;;;22.27;33.36
86120;BME280;76781;52.434;13.488;2024-02-28T11:52:27;101903.44;;;22.20;33.45
86120;BME280;76781;52.434;13.488;2024-02-28T11:54:52;101898.75;;;22.11;33.36
86120;BME280;76781;52.434;13.488;2024-02-28T11:57:19;101899.50;;;22.03;33.20
86120;BME280;76781;52.434;13.488;2024-02-28T11:59:44;101904.72;;;21.96;33.32
86120;BME280;76781;52.434;13.488;2024-02-28T12:02:14;101908.94;;;21.91;33.47
86120;BME280;76781;52.434;13.488;2024-02-28T12:04:42;101908.94;;;21.91;33.69
86120;BME280;76781;52.434;13.488;2024-02-28T12:07:11;101900.66;;;21.91;33.69
86120;BME280;76781;52.434;13.488;2024-02-28T12:09:37;101919.00;;;21.92;33.91
86120;BME280;76781;52.434;13.488;2024-02-28T12:12:04;101910.69;;;21.92;34.16
86120;BME280;76781;52.434;13.488;2024-02-28T12:14:32;101914.50;;;21.91;33.91
86120;BME280;76781;52.434;13.488;2024-02-28T12:17:01;101910.97;;;21.89;33.82
86120;BME280;76781;52.434;13.488;2024-02-28T12:19:27;101905.75;;;21.86;33.72
86120;BME280;76781;52.434;13.488;2024-02-28T12:21:54;101908.34;;;21.87;33.74
86120;BME280;76781;52.434;13.488;2024-02-28T12:24:19;101904.44;;;21.90;34.13
86120;BME280;76781;52.434;13.488;2024-02-28T12:26:45;101909.66;;;21.93;33.91
86120;BME280;76781;52.434;13.488;2024-02-28T12:29:10;101906.91;;;21.93;33.75
86120;BME280;76781;52.434;13.488;2024-02-28T12:31:36;101908.78;;;21.92;33.52
86120;BME280;76781;52.434;13.488;2024-02-28T12:34:02;101903.13;;;21.94;34.07
86120;BME280;76781;52.434;13.488;2024-02-28T12:36:29;101914.22;;;21.94;33.89
86120;BME280;76781;52.434;13.488;2024-02-28T12:38:54;101902.97;;;21.95;34.37
86120;BME280;76781;52.434;13.488;2024-02-28T12:41:20;101899.34;;;21.95;34.39
86120;BME280;76781;52.434;13.488;2024-02-28T12:43:45;101897.59;;;21.94;34.64
86120;BME280;76781;52.434;13.488;2024-02-28T12:46:10;101903.13;;;21.94;34.59
86120;BME280;76781;52.434;13.488;2024-02-28T12:48:40;101905.75;;;21.95;34.71
86120;BME280;76781;52.434;13.488;2024-02-28T14:13:03;101885.91;;;22.68;33.10
86120;BME280;76781;52.434;13.488;2024-02-28T14:15:29;101887.66;;;22.59;33.08
86120;BME280;76781;52.434;13.488;2024-02-28T14:17:54;101886.22;;;22.55;33.28
86120;BME280;76781;52.434;13.488;2024-02-28T14:20:21;101884.75;;;22.51;33.08
86120;BME280;76781;52.434;13.488;2024-02-28T14:22:47;101883.19;;;22.48;33.31
86120;BME280;76781;52.434;13.488;2024-02-28T14:25:22;101886.81;;;22.49;33.29
86120;BME280;76781;52.434;13.488;2024-02-28T14:27:48;101892.34;;;22.49;33.61
86120;BME280;76781;52.434;13.488;2024-02-28T14:30:14;101881.56;;;22.46;33.69
86120;BME280;76781;52.434;13.488;2024-02-28T14:32:42;101885.94;;;22.48;33.53
86120;BME280;76781;52.434;13.488;2024-02-28T14:35:09;101894.38;;;22.47;33.57
86120;BME280;76781;52.434;13.488;2024-02-28T14:37:39;101893.34;;;22.48;33.40
86120;BME280;76781;52.434;13.488;2024-02-28T14:40:07;101894.38;;;22.47;33.56
86120;BME280;76781;52.434;13.488;2024-02-28T14:42:38;101894.38;;;22.47;33.65
86120;BME280;76781;52.434;13.488;2024-02-28T14:45:07;101904.44;;;22.48;33.46
86120;BME280;76781;52.434;13.488;2024-02-28T14:47:34;101894.53;;;22.45;33.47
86120;BME280;76781;52.434;13.488;2024-02-28T14:50:05;101896.72;;;22.42;32.85
86120;BME280;76781;52.434;13.488;2024-02-28T14:52:31;101907.81;;;22.42;33.34
86120;BME280;76781;52.434;13.488;2024-02-28T14:54:58;101913.34;;;22.42;32.99
86120;BME280;76781;52.434;13.488;2024-02-28T14:57:24;101909.56;;;22.43;33.01
86120;BME280;76781;52.434;13.488;2024-02-28T14:59:50;101899.78;;;22.39;33.08
86120;BME280;76781;52.434;13.488;2024-02-28T15:02:16;101904.88;;;22.43;33.20
86120;BME280;76781;52.434;13.488;2024-02-28T15:04:42;101900.38;;;22.42;33.31
86120;BME280;76781;52.434;13.488;2024-02-28T15:07:08;101904.59;;;22.46;33.35
86120;BME280;76781;52.434;13.488;2024-02-28T15:09:37;101909.28;;;22.46;33.12
86120;BME280;76781;52.434;13.488;2024-02-28T15:12:03;101909.28;;;22.46;33.32
86120;BME280;76781;52.434;13.488;2024-02-28T15:14:34;101902.84;;;22.45;33.34
86120;BME280;76781;52.434;13.488;2024-02-28T15:17:00;101907.53;;;22.45;33.56
86120;BME280;76781;52.434;13.488;2024-02-28T15:19:27;101909.09;;;22.47;33.28
